sensor_id;sensor_type;location;lat;lon;timestamp;temperature;humidity
921;DHT22;447;51.332;6.778;2022-09-13T00:01:09;22.30;85.70
921;DHT22;447;51.332;6.778;2022-09-13T00:03:40;22.30;85.70
921;DHT22;447;51.332;6.778;2022-09-13T00:06:13;22.20;85.70
921;DHT22;447;51.332;6.778;2022-09-13T00:08:39;22.20;85.60
921;DHT22;447;51.332;6.778;2022-09-13T00:11:14;22.20;85.60
921;DHT22;447;51.332;6.778;2022-09-13T00:13:41;22.20;85.70
921;DHT22;447;51.332;6.778;2022-09-13T00:16:14;22.20;85.70
921;DHT22;447;51.332;6.778;2022-09-13T00:18:41;22.20;85.70
921;DHT22;447;51.332;6.778;2022-09-13T00:21:13;22.20;85.70
921;DHT22;447;51.332;6.778;2022-09-13T00:23:47;22.20;85.70
921;DHT22;447;51.332;6.778;2022-09-13T00:26:21;22.20;85.70
921;DHT22;447;51.332;6.778;2022-09-13T00:28:59;22.20;85.80
921;DHT22;447;51.332;6.778;2022-09-13T00:31:29;22.10;85.80
921;DHT22;447;51.332;6.778;2022-09-13T00:33:58;22.10;85.80
921;DHT22;447;51.332;6.778;2022-09-13T00:36:29;22.10;85.90
921;DHT22;447;51.332;6.778;2022-09-13T00:38:56;22.10;85.90
921;DHT22;447;51.332;6.778;2022-09-13T00:41:22;22.10;85.90
921;DHT22;447;51.332;6.778;2022-09-13T00:43:54;22.10;86.00
921;DHT22;447;51.332;6.778;2022-09-13T00:46:31;22.10;86.00
921;DHT22;447;51.332;6.778;2022-09-13T00:49:23;22.10;86.00
921;DHT22;447;51.332;6.778;2022-09-13T00:51:58;22.10;86.10
921;DHT22;447;51.332;6.778;2022-09-13T00:54:29;22.10;86.10
921;DHT22;447;51.332;6.778;2022-09-13T00:56:59;22.10;86.20
921;DHT22;447;51.332;6.778;2022-09-13T00:59:31;22.10;86.20
921;DHT22;447;51.332;6.778;2022-09-13T01:02:02;22.00;86.20
921;DHT22;447;51.332;6.778;2022-09-13T01:04:33;22.00;86.30
921;DHT22;447;51.332;6.778;2022-09-13T01:07:06;22.00;86.30
921;DHT22;447;51.332;6.778;2022-09-13T01:09:41;22.00;86.30
921;DHT22;447;51.332;6.778;2022-09-13T01:15:03;22.00;86.30
921;DHT22;447;51.332;6.778;2022-09-13T01:17:35;22.00;86.30
921;DHT22;447;51.332;6.778;2022-09-13T01:20:08;22.00;86.30
921;DHT22;447;51.332;6.778;2022-09-13T01:28:15;22.00;86.40
921;DHT22;447;51.332;6.778;2022-09-13T01:33:41;22.00;86.30
921;DHT22;447;51.332;6.778;2022-09-13T01:39:21;22.00;86.40
921;DHT22;447;51.332;6.778;2022-09-13T01:42:20;21.90;86.20
921;DHT22;447;51.332;6.778;2022-09-13T01:45:11;21.90;86.30
921;DHT22;447;51.332;6.778;2022-09-13T01:50:41;21.90;86.20
921;DHT22;447;51.332;6.778;2022-09-13T01:53:52;21.90;86.20
921;DHT22;447;51.332;6.778;2022-09-13T01:56:30;21.90;86.20
921;DHT22;447;51.332;6.778;2022-09-13T01:59:10;21.90;86.30
921;DHT22;447;51.332;6.778;2022-09-13T02:02:02;21.90;86.30
921;DHT22;447;51.332;6.778;2022-09-13T02:04:44;21.90;86.30
921;DHT22;447;51.332;6.778;2022-09-13T02:07:19;21.90;86.40
921;DHT22;447;51.332;6.778;2022-09-13T02:10:08;21.90;86.30
921;DHT22;447;51.332;6.778;2022-09-13T02:12:42;21.80;86.30
921;DHT22;447;51.332;6.778;2022-09-13T02:15:16;21.90;86.40
921;DHT22;447;51.332;6.778;2022-09-13T02:17:53;21.80;86.20
921;DHT22;447;51.332;6.778;2022-09-13T02:20:29;21.90;86.30
921;DHT22;447;51.332;6.778;2022-09-13T02:23:02;21.80;86.10
921;DHT22;447;51.332;6.778;2022-09-13T02:25:31;21.80;86.20
921;DHT22;447;51.332;6.778;2022-09-13T02:28:02;21.80;86.20
921;DHT22;447;51.332;6.778;2022-09-13T02:30:32;21.80;86.20
921;DHT22;447;51.332;6.778;2022-09-13T02:33:12;21.80;86.20
921;DHT22;447;51.332;6.778;2022-09-13T02:35:48;21.80;86.30
921;DHT22;447;51.332;6.778;2022-09-13T02:38:43;21.80;86.20
921;DHT22;447;51.332;6.778;2022-09-13T02:41:36;21.80;86.30
921;DHT22;447;51.332;6.778;2022-09-13T02:44:16;21.80;86.40
921;DHT22;447;51.332;6.778;2022-09-13T02:58:18;21.70;86.30
921;DHT22;447;51.332;6.778;2022-09-13T03:00:52;21.80;86.50
921;DHT22;447;51.332;6.778;2022-09-13T03:03:20;21.70;86.40
921;DHT22;447;51.332;6.778;2022-09-13T03:05:46;21.70;86.40
921;DHT22;447;51.332;6.778;2022-09-13T03:08:18;21.70;86.50
921;DHT22;447;51.332;6.778;2022-09-13T03:14:03;21.70;86.50
921;DHT22;447;51.332;6.778;2022-09-13T03:25:28;21.70;86.60
921;DHT22;447;51.332;6.778;2022-09-13T03:30:36;21.70;86.80
921;DHT22;447;51.332;6.778;2022-09-13T03:33:23;21.70;86.80
921;DHT22;447;51.332;6.778;2022-09-13T03:39:08;21.70;87.00
921;DHT22;447;51.332;6.778;2022-09-13T03:41:45;21.60;86.90
921;DHT22;447;51.332;6.778;2022-09-13T03:44:23;21.60;87.00
921;DHT22;447;51.332;6.778;2022-09-13T03:46:53;21.60;87.00
921;DHT22;447;51.332;6.778;2022-09-13T03:49:25;21.60;87.20
921;DHT22;447;51.332;6.778;2022-09-13T03:51:55;21.60;87.20
921;DHT22;447;51.332;6.778;2022-09-13T03:54:28;21.60;87.30
921;DHT22;447;51.332;6.778;2022-09-13T03:57:19;21.60;87.40
921;DHT22;447;51.332;6.778;2022-09-13T03:59:51;21.60;87.50
921;DHT22;447;51.332;6.778;2022-09-13T04:02:24;21.60;87.60
921;DHT22;447;51.332;6.778;2022-09-13T04:04:53;21.60;87.70
921;DHT22;447;51.332;6.778;2022-09-13T04:07:22;21.60;87.80
921;DHT22;447;51.332;6.778;2022-09-13T04:09:51;21.60;87.80
921;DHT22;447;51.332;6.778;2022-09-13T04:12:20;21.60;87.90
921;DHT22;447;51.332;6.778;2022-09-13T04:14:47;21.50;87.80
921;DHT22;447;51.332;6.778;2022-09-13T04:17:16;21.60;88.00
921;DHT22;447;51.332;6.778;2022-09-13T04:19:44;21.50;87.90
921;DHT22;447;51.332;6.778;2022-09-13T04:22:16;21.50;88.00
921;DHT22;447;51.332;6.778;2022-09-13T04:24:45;21.50;88.10
921;DHT22;447;51.332;6.778;2022-09-13T04:27:15;21.50;88.20
921;DHT22;447;51.332;6.778;2022-09-13T04:29:46;21.50;88.20
921;DHT22;447;51.332;6.778;2022-09-13T04:32:17;21.50;88.30
921;DHT22;447;51.332;6.778;2022-09-13T04:34:46;21.50;88.40
921;DHT22;447;51.332;6.778;2022-09-13T04:37:12;21.50;88.50
921;DHT22;447;51.332;6.778;2022-09-13T04:39:40;21.50;88.50
921;DHT22;447;51.332;6.778;2022-09-13T04:42:08;21.50;88.50
921;DHT22;447;51.332;6.778;2022-09-13T04:44:38;21.50;88.50
921;DHT22;447;51.332;6.778;2022-09-13T04:47:07;21.50;88.50
921;DHT22;447;51.332;6.778;2022-09-13T04:49:33;21.50;88.50
921;DHT22;447;51.332;6.778;2022-09-13T04:52:02;21.50;88.50
921;DHT22;447;51.332;6.778;2022-09-13T04:54:30;21.50;88.60
921;DHT22;447;51.332;6.778;2022-09-13T04:56:58;21.40;88.50
921;DHT22;447;51.332;6.778;2022-09-13T04:59:25;21.50;88.70
921;DHT22;447;51.332;6.778;2022-09-13T05:01:55;21.40;88.50
921;DHT22;447;51.332;6.778;2022-09-13T05:04:24;21.40;88.50
921;DHT22;447;51.332;6.778;2022-09-13T05:06:50;21.40;89.40
921;DHT22;447;51.332;6.778;2022-09-13T05:09:23;21.40;88.60
921;DHT22;447;51.332;6.778;2022-09-13T05:11:54;21.40;88.70
921;DHT22;447;51.332;6.778;2022-09-13T05:14:22;21.40;88.80
921;DHT22;447;51.332;6.778;2022-09-13T05:16:51;21.40;88.90
921;DHT22;447;51.332;6.778;2022-09-13T05:19:17;21.40;88.90
921;DHT22;447;51.332;6.778;2022-09-13T05:21:43;21.40;89.00
921;DHT22;447;51.332;6.778;2022-09-13T05:24:09;21.40;88.90
921;DHT22;447;51.332;6.778;2022-09-13T05:26:35;21.40;88.90
921;DHT22;447;51.332;6.778;2022-09-13T05:29:05;21.40;89.70
921;DHT22;447;51.332;6.778;2022-09-13T05:31:35;21.40;89.00
921;DHT22;447;51.332;6.778;2022-09-13T05:34:09;21.40;89.00
921;DHT22;447;51.332;6.778;2022-09-13T05:36:38;21.40;89.00
921;DHT22;447;51.332;6.778;2022-09-13T05:39:05;21.40;89.10
921;DHT22;447;51.332;6.778;2022-09-13T05:41:35;21.30;88.80
921;DHT22;447;51.332;6.778;2022-09-13T05:44:03;21.30;88.90
921;DHT22;447;51.332;6.778;2022-09-13T05:46:31;21.30;88.90
921;DHT22;447;51.332;6.778;2022-09-13T05:48:59;21.30;88.90
921;DHT22;447;51.332;6.778;2022-09-13T05:51:26;21.30;89.00
921;DHT22;447;51.332;6.778;2022-09-13T05:53:55;21.30;89.00
921;DHT22;447;51.332;6.778;2022-09-13T05:56:28;21.30;89.00
921;DHT22;447;51.332;6.778;2022-09-13T05:58:54;21.30;89.00
921;DHT22;447;51.332;6.778;2022-09-13T06:01:27;21.30;89.00
921;DHT22;447;51.332;6.778;2022-09-13T06:03:57;21.30;89.10
921;DHT22;447;51.332;6.778;2022-09-13T06:06:26;21.30;89.00
921;DHT22;447;51.332;6.778;2022-09-13T06:08:54;21.30;89.00
921;DHT22;447;51.332;6.778;2022-09-13T06:11:24;21.30;89.10
921;DHT22;447;51.332;6.778;2022-09-13T06:13:53;21.30;89.10
921;DHT22;447;51.332;6.778;2022-09-13T06:16:19;21.30;89.00
921;DHT22;447;51.332;6.778;2022-09-13T06:18:46;21.30;89.10
921;DHT22;447;51.332;6.778;2022-09-13T06:21:15;21.30;89.10
921;DHT22;447;51.332;6.778;2022-09-13T06:23:51;21.20;89.10
921;DHT22;447;51.332;6.778;2022-09-13T06:26:23;21.20;89.10
921;DHT22;447;51.332;6.778;2022-09-13T06:28:57;21.20;89.10
921;DHT22;447;51.332;6.778;2022-09-13T06:31:25;21.20;89.10
921;DHT22;447;51.332;6.778;2022-09-13T06:33:59;21.20;89.20
921;DHT22;447;51.332;6.778;2022-09-13T06:36:25;21.20;89.20
921;DHT22;447;51.332;6.778;2022-09-13T06:38:51;21.20;89.20
921;DHT22;447;51.332;6.778;2022-09-13T06:41:22;21.20;89.20
921;DHT22;447;51.332;6.778;2022-09-13T06:43:53;21.20;89.30
921;DHT22;447;51.332;6.778;2022-09-13T06:46:43;21.20;89.30
921;DHT22;447;51.332;6.778;2022-09-13T06:49:12;21.20;89.30
921;DHT22;447;51.332;6.778;2022-09-13T06:51:43;21.20;89.40
921;DHT22;447;51.332;6.778;2022-09-13T06:54:11;21.20;89.40
921;DHT22;447;51.332;6.778;2022-09-13T06:56:39;21.20;89.50
921;DHT22;447;51.332;6.778;2022-09-13T06:59:11;21.20;89.50
921;DHT22;447;51.332;6.778;2022-09-13T07:01:39;21.20;89.60
921;DHT22;447;51.332;6.778;2022-09-13T07:04:08;21.20;89.50
921;DHT22;447;51.332;6.778;2022-09-13T07:06:43;21.20;89.40
921;DHT22;447;51.332;6.778;2022-09-13T07:09:21;21.20;89.50
921;DHT22;447;51.332;6.778;2022-09-13T07:11:49;21.20;89.50
921;DHT22;447;51.332;6.778;2022-09-13T07:14:23;21.20;89.60
921;DHT22;447;51.332;6.778;2022-09-13T07:16:53;21.20;89.50
921;DHT22;447;51.332;6.778;2022-09-13T07:19:24;21.20;89.50
921;DHT22;447;51.332;6.778;2022-09-13T07:21:52;21.20;89.50
921;DHT22;447;51.332;6.778;2022-09-13T07:24:25;21.20;89.60
921;DHT22;447;51.332;6.778;2022-09-13T07:26:56;21.20;89.70
921;DHT22;447;51.332;6.778;2022-09-13T07:29:25;21.10;89.60
921;DHT22;447;51.332;6.778;2022-09-13T07:31:56;21.20;89.90
921;DHT22;447;51.332;6.778;2022-09-13T07:34:29;21.20;89.80
921;DHT22;447;51.332;6.778;2022-09-13T07:36:57;21.20;89.80
921;DHT22;447;51.332;6.778;2022-09-13T07:39:25;21.20;89.80
921;DHT22;447;51.332;6.778;2022-09-13T07:41:56;21.20;89.90
921;DHT22;447;51.332;6.778;2022-09-13T07:44:27;21.10;89.70
921;DHT22;447;51.332;6.778;2022-09-13T07:46:57;21.20;89.90
921;DHT22;447;51.332;6.778;2022-09-13T07:49:27;21.20;89.80
921;DHT22;447;51.332;6.778;2022-09-13T07:52:00;21.10;89.70
921;DHT22;447;51.332;6.778;2022-09-13T07:54:49;21.20;89.90
921;DHT22;447;51.332;6.778;2022-09-13T07:57:15;21.20;89.80
921;DHT22;447;51.332;6.778;2022-09-13T08:00:07;21.20;89.90
921;DHT22;447;51.332;6.778;2022-09-13T08:02:40;21.20;89.80
921;DHT22;447;51.332;6.778;2022-09-13T08:05:06;21.10;89.70
921;DHT22;447;51.332;6.778;2022-09-13T08:07:34;21.20;89.90
921;DHT22;447;51.332;6.778;2022-09-13T08:10:03;21.20;89.90
921;DHT22;447;51.332;6.778;2022-09-13T08:12:31;21.20;89.90
921;DHT22;447;51.332;6.778;2022-09-13T08:14:57;21.20;89.90
921;DHT22;447;51.332;6.778;2022-09-13T08:17:23;21.20;90.20
921;DHT22;447;51.332;6.778;2022-09-13T08:19:49;21.20;89.90
921;DHT22;447;51.332;6.778;2022-09-13T08:22:19;21.20;89.90
921;DHT22;447;51.332;6.778;2022-09-13T08:24:45;21.20;89.90
921;DHT22;447;51.332;6.778;2022-09-13T08:27:11;21.20;90.30
921;DHT22;447;51.332;6.778;2022-09-13T08:29:40;21.20;89.90
921;DHT22;447;51.332;6.778;2022-09-13T08:32:06;21.20;89.80
921;DHT22;447;51.332;6.778;2022-09-13T08:34:32;21.20;89.70
921;DHT22;447;51.332;6.778;2022-09-13T08:37:05;21.20;89.70
921;DHT22;447;51.332;6.778;2022-09-13T08:39:34;21.20;89.70
921;DHT22;447;51.332;6.778;2022-09-13T08:42:36;21.30;89.70
921;DHT22;447;51.332;6.778;2022-09-13T08:44:58;21.30;89.80
921;DHT22;447;51.332;6.778;2022-09-13T09:00:43;21.30;89.70
921;DHT22;447;51.332;6.778;2022-09-13T09:05:50;21.40;89.80
921;DHT22;447;51.332;6.778;2022-09-13T09:11:39;21.40;89.80
921;DHT22;447;51.332;6.778;2022-09-13T09:16:52;21.40;89.80
921;DHT22;447;51.332;6.778;2022-09-13T09:19:38;21.40;89.80
921;DHT22;447;51.332;6.778;2022-09-13T09:22:13;21.40;89.80
921;DHT22;447;51.332;6.778;2022-09-13T09:24:47;21.40;89.80
921;DHT22;447;51.332;6.778;2022-09-13T09:27:20;21.50;89.90
921;DHT22;447;51.332;6.778;2022-09-13T09:29:53;21.50;89.80
921;DHT22;447;51.332;6.778;2022-09-13T09:41:00;21.60;89.70
921;DHT22;447;51.332;6.778;2022-09-13T09:43:39;21.60;89.70
921;DHT22;447;51.332;6.778;2022-09-13T09:46:15;21.60;89.60
921;DHT22;447;51.332;6.778;2022-09-13T09:48:53;21.70;89.70
921;DHT22;447;51.332;6.778;2022-09-13T09:51:24;21.70;89.80
921;DHT22;447;51.332;6.778;2022-09-13T09:53:56;21.70;89.80
921;DHT22;447;51.332;6.778;2022-09-13T09:56:34;21.70;89.70
921;DHT22;447;51.332;6.778;2022-09-13T09:59:03;21.80;89.90
921;DHT22;447;51.332;6.778;2022-09-13T10:01:31;21.80;90.00
921;DHT22;447;51.332;6.778;2022-09-13T10:06:35;21.90;90.00
921;DHT22;447;51.332;6.778;2022-09-13T10:09:21;21.90;90.00
921;DHT22;447;51.332;6.778;2022-09-13T10:11:49;21.90;90.10
921;DHT22;447;51.332;6.778;2022-09-13T10:17:26;21.90;90.00
921;DHT22;447;51.332;6.778;2022-09-13T10:20:04;22.00;90.10
921;DHT22;447;51.332;6.778;2022-09-13T10:25:43;22.00;90.00
921;DHT22;447;51.332;6.778;2022-09-13T10:28:55;22.00;90.00
921;DHT22;447;51.332;6.778;2022-09-13T10:31:28;22.10;90.10
921;DHT22;447;51.332;6.778;2022-09-13T10:34:03;22.10;90.20
921;DHT22;447;51.332;6.778;2022-09-13T10:36:37;22.10;90.20
921;DHT22;447;51.332;6.778;2022-09-13T10:39:16;22.10;90.20
921;DHT22;447;51.332;6.778;2022-09-13T10:42:06;22.20;90.20
921;DHT22;447;51.332;6.778;2022-09-13T10:44:39;22.20;90.20
921;DHT22;447;51.332;6.778;2022-09-13T10:47:21;22.20;90.20
921;DHT22;447;51.332;6.778;2022-09-13T10:49:53;22.30;90.20
921;DHT22;447;51.332;6.778;2022-09-13T10:52:33;22.30;90.10
921;DHT22;447;51.332;6.778;2022-09-13T10:57:51;22.40;90.10
921;DHT22;447;51.332;6.778;2022-09-13T11:00:24;22.40;90.00
921;DHT22;447;51.332;6.778;2022-09-13T11:05:31;22.50;90.00
921;DHT22;447;51.332;6.778;2022-09-13T11:14:59;22.60;90.00
921;DHT22;447;51.332;6.778;2022-09-13T11:45:00;23.00;89.70
921;DHT22;447;51.332;6.778;2022-09-13T11:48:21;23.00;89.60
921;DHT22;447;51.332;6.778;2022-09-13T11:50:41;23.00;89.60
921;DHT22;447;51.332;6.778;2022-09-13T11:56:05;23.10;89.60
921;DHT22;447;51.332;6.778;2022-09-13T11:58:58;23.10;89.40
921;DHT22;447;51.332;6.778;2022-09-13T12:01:30;23.10;89.40
921;DHT22;447;51.332;6.778;2022-09-13T12:04:08;23.20;89.40
921;DHT22;447;51.332;6.778;2022-09-13T12:06:42;23.20;89.30
921;DHT22;447;51.332;6.778;2022-09-13T12:09:24;23.20;89.10
921;DHT22;447;51.332;6.778;2022-09-13T12:19:59;23.30;89.00
921;DHT22;447;51.332;6.778;2022-09-13T12:22:33;23.40;89.10
921;DHT22;447;51.332;6.778;2022-09-13T12:25:03;23.40;89.00
921;DHT22;447;51.332;6.778;2022-09-13T12:27:39;23.40;88.80
921;DHT22;447;51.332;6.778;2022-09-13T12:30:18;23.50;88.80
921;DHT22;447;51.332;6.778;2022-09-13T12:32:47;23.50;88.60
921;DHT22;447;51.332;6.778;2022-09-13T12:38:12;23.50;88.50
921;DHT22;447;51.332;6.778;2022-09-13T12:41:16;23.50;88.40
921;DHT22;447;51.332;6.778;2022-09-13T13:01:13;23.80;88.20
921;DHT22;447;51.332;6.778;2022-09-13T13:03:50;23.80;88.20
921;DHT22;447;51.332;6.778;2022-09-13T13:06:31;23.80;88.20
921;DHT22;447;51.332;6.778;2022-09-13T13:09:06;23.90;88.20
921;DHT22;447;51.332;6.778;2022-09-13T13:11:47;23.90;88.20
921;DHT22;447;51.332;6.778;2022-09-13T13:14:44;23.90;88.00
921;DHT22;447;51.332;6.778;2022-09-13T13:23:29;24.00;87.70
921;DHT22;447;51.332;6.778;2022-09-13T13:42:38;24.20;87.40
921;DHT22;447;51.332;6.778;2022-09-13T13:49:50;24.30;88.00
921;DHT22;447;51.332;6.778;2022-09-13T13:55:00;24.30;86.90
921;DHT22;447;51.332;6.778;2022-09-13T13:57:36;24.30;86.80
921;DHT22;447;51.332;6.778;2022-09-13T14:00:23;24.40;86.90
921;DHT22;447;51.332;6.778;2022-09-13T14:05:42;24.40;86.90
921;DHT22;447;51.332;6.778;2022-09-13T14:13:58;24.40;86.60
921;DHT22;447;51.332;6.778;2022-09-13T14:19:53;24.50;86.60
921;DHT22;447;51.332;6.778;2022-09-13T14:22:23;24.50;86.60
921;DHT22;447;51.332;6.778;2022-09-13T14:24:56;24.50;86.50
921;DHT22;447;51.332;6.778;2022-09-13T14:27:34;24.50;87.20
921;DHT22;447;51.332;6.778;2022-09-13T14:30:27;24.50;86.40
921;DHT22;447;51.332;6.778;2022-09-13T14:33:38;24.50;87.20
921;DHT22;447;51.332;6.778;2022-09-13T14:36:18;24.50;86.30
921;DHT22;447;51.332;6.778;2022-09-13T14:38:55;24.60;86.50
921;DHT22;447;51.332;6.778;2022-09-13T14:41:36;24.60;86.50
921;DHT22;447;51.332;6.778;2022-09-13T14:44:16;24.60;86.40
921;DHT22;447;51.332;6.778;2022-09-13T14:46:47;24.60;86.30
921;DHT22;447;51.332;6.778;2022-09-13T14:49:24;24.60;86.10
921;DHT22;447;51.332;6.778;2022-09-13T14:51:58;24.70;86.30
921;DHT22;447;51.332;6.778;2022-09-13T14:57:33;24.70;86.20
921;DHT22;447;51.332;6.778;2022-09-13T15:02:45;24.70;86.10
921;DHT22;447;51.332;6.778;2022-09-13T15:05:13;24.70;86.10
921;DHT22;447;51.332;6.778;2022-09-13T15:07:45;24.70;86.10
921;DHT22;447;51.332;6.778;2022-09-13T15:21:14;24.80;86.20
921;DHT22;447;51.332;6.778;2022-09-13T15:23:42;24.80;86.30
921;DHT22;447;51.332;6.778;2022-09-13T15:26:20;24.70;86.10
921;DHT22;447;51.332;6.778;2022-09-13T15:28:51;24.80;86.20
921;DHT22;447;51.332;6.778;2022-09-13T15:31:28;24.80;86.30
921;DHT22;447;51.332;6.778;2022-09-13T15:40:21;24.80;86.20
921;DHT22;447;51.332;6.778;2022-09-13T15:42:49;24.80;86.30
921;DHT22;447;51.332;6.778;2022-09-13T15:45:16;24.80;86.30
921;DHT22;447;51.332;6.778;2022-09-13T15:47:47;24.80;86.30
921;DHT22;447;51.332;6.778;2022-09-13T15:50:26;24.80;86.30
921;DHT22;447;51.332;6.778;2022-09-13T15:52:58;24.80;86.30
921;DHT22;447;51.332;6.778;2022-09-13T15:55:27;24.80;86.30
921;DHT22;447;51.332;6.778;2022-09-13T15:57:55;24.80;86.30
921;DHT22;447;51.332;6.778;2022-09-13T16:00:24;24.80;86.30
921;DHT22;447;51.332;6.778;2022-09-13T16:02:55;24.80;86.30
921;DHT22;447;51.332;6.778;2022-09-13T16:05:26;24.80;86.40
921;DHT22;447;51.332;6.778;2022-09-13T16:07:54;24.80;86.40
921;DHT22;447;51.332;6.778;2022-09-13T16:10:24;24.80;86.50
921;DHT22;447;51.332;6.778;2022-09-13T16:12:50;24.80;86.50
921;DHT22;447;51.332;6.778;2022-09-13T16:15:16;24.80;86.50
921;DHT22;447;51.332;6.778;2022-09-13T16:17:43;24.80;86.50
921;DHT22;447;51.332;6.778;2022-09-13T16:20:14;24.80;86.60
921;DHT22;447;51.332;6.778;2022-09-13T16:22:40;24.80;86.50
921;DHT22;447;51.332;6.778;2022-09-13T16:25:08;24.80;86.60
921;DHT22;447;51.332;6.778;2022-09-13T16:27:36;24.80;86.60
921;DHT22;447;51.332;6.778;2022-09-13T16:30:03;24.80;86.60
921;DHT22;447;51.332;6.778;2022-09-13T16:32:34;24.80;86.50
921;DHT22;447;51.332;6.778;2022-09-13T16:35:00;24.80;86.50
921;DHT22;447;51.332;6.778;2022-09-13T16:37:26;24.80;86.50
921;DHT22;447;51.332;6.778;2022-09-13T16:40:00;24.80;86.50
921;DHT22;447;51.332;6.778;2022-09-13T16:42:27;24.80;86.50
921;DHT22;447;51.332;6.778;2022-09-13T16:44:57;24.80;86.80
921;DHT22;447;51.332;6.778;2022-09-13T16:47:25;24.80;86.40
921;DHT22;447;51.332;6.778;2022-09-13T16:49:52;24.80;86.40
921;DHT22;447;51.332;6.778;2022-09-13T16:52:20;24.80;86.40
921;DHT22;447;51.332;6.778;2022-09-13T16:54:48;24.80;86.30
921;DHT22;447;51.332;6.778;2022-09-13T16:57:18;24.80;86.40
921;DHT22;447;51.332;6.778;2022-09-13T16:59:44;24.80;86.40
921;DHT22;447;51.332;6.778;2022-09-13T17:02:14;24.80;86.50
921;DHT22;447;51.332;6.778;2022-09-13T17:04:46;24.80;86.50
921;DHT22;447;51.332;6.778;2022-09-13T17:07:15;24.80;86.50
921;DHT22;447;51.332;6.778;2022-09-13T17:09:41;24.80;86.50
921;DHT22;447;51.332;6.778;2022-09-13T17:12:46;24.80;86.50
921;DHT22;447;51.332;6.778;2022-09-13T17:15:19;24.80;86.60
921;DHT22;447;51.332;6.778;2022-09-13T17:17:44;24.80;86.80
921;DHT22;447;51.332;6.778;2022-09-13T17:20:11;24.80;87.10
921;DHT22;447;51.332;6.778;2022-09-13T17:22:39;24.80;87.30
921;DHT22;447;51.332;6.778;2022-09-13T17:25:09;24.80;87.30
921;DHT22;447;51.332;6.778;2022-09-13T17:27:35;24.80;87.30
921;DHT22;447;51.332;6.778;2022-09-13T17:30:04;24.80;87.30
921;DHT22;447;51.332;6.778;2022-09-13T17:32:31;24.80;87.30
921;DHT22;447;51.332;6.778;2022-09-13T17:35:02;24.80;87.20
921;DHT22;447;51.332;6.778;2022-09-13T17:37:28;24.80;87.20
921;DHT22;447;51.332;6.778;2022-09-13T17:39:54;24.70;87.10
921;DHT22;447;51.332;6.778;2022-09-13T17:42:21;24.70;87.00
921;DHT22;447;51.332;6.778;2022-09-13T17:44:47;24.80;87.30
921;DHT22;447;51.332;6.778;2022-09-13T17:47:15;24.70;87.40
921;DHT22;447;51.332;6.778;2022-09-13T17:49:46;24.70;87.50
921;DHT22;447;51.332;6.778;2022-09-13T17:52:12;24.70;87.60
921;DHT22;447;51.332;6.778;2022-09-13T17:54:38;24.70;87.90
921;DHT22;447;51.332;6.778;2022-09-13T17:57:07;24.70;88.10
921;DHT22;447;51.332;6.778;2022-09-13T17:59:42;24.70;88.40
921;DHT22;447;51.332;6.778;2022-09-13T18:02:12;24.70;88.60
921;DHT22;447;51.332;6.778;2022-09-13T18:04:38;24.70;88.60
921;DHT22;447;51.332;6.778;2022-09-13T18:07:04;24.70;88.80
921;DHT22;447;51.332;6.778;2022-09-13T18:09:31;24.70;88.90
921;DHT22;447;51.332;6.778;2022-09-13T18:12:01;24.70;89.10
921;DHT22;447;51.332;6.778;2022-09-13T18:14:30;24.70;89.30
921;DHT22;447;51.332;6.778;2022-09-13T18:16:57;24.70;89.50
921;DHT22;447;51.332;6.778;2022-09-13T18:19:25;24.70;89.80
921;DHT22;447;51.332;6.778;2022-09-13T18:21:55;24.70;90.00
921;DHT22;447;51.332;6.778;2022-09-13T18:24:25;24.70;90.00
921;DHT22;447;51.332;6.778;2022-09-13T18:26:51;24.70;90.10
921;DHT22;447;51.332;6.778;2022-09-13T18:29:19;24.70;90.10
921;DHT22;447;51.332;6.778;2022-09-13T18:31:48;24.70;90.10
921;DHT22;447;51.332;6.778;2022-09-13T18:34:14;24.70;90.20
921;DHT22;447;51.332;6.778;2022-09-13T18:36:43;24.60;90.20
921;DHT22;447;51.332;6.778;2022-09-13T18:39:15;24.60;90.30
921;DHT22;447;51.332;6.778;2022-09-13T18:41:45;24.60;90.30
921;DHT22;447;51.332;6.778;2022-09-13T18:44:13;24.60;90.40
921;DHT22;447;51.332;6.778;2022-09-13T18:46:40;24.60;90.40
921;DHT22;447;51.332;6.778;2022-09-13T18:49:11;24.60;90.50
921;DHT22;447;51.332;6.778;2022-09-13T18:51:48;24.60;90.50
921;DHT22;447;51.332;6.778;2022-09-13T18:54:17;24.60;90.50
921;DHT22;447;51.332;6.778;2022-09-13T18:56:44;24.60;90.50
921;DHT22;447;51.332;6.778;2022-09-13T18:59:13;24.60;90.60
921;DHT22;447;51.332;6.778;2022-09-13T19:01:41;24.60;90.60
921;DHT22;447;51.332;6.778;2022-09-13T19:06:58;24.60;90.50
921;DHT22;447;51.332;6.778;2022-09-13T19:09:27;24.50;90.50
921;DHT22;447;51.332;6.778;2022-09-13T19:12:16;24.50;90.50
921;DHT22;447;51.332;6.778;2022-09-13T19:14:42;24.50;90.90
921;DHT22;447;51.332;6.778;2022-09-13T19:17:14;24.50;90.70
921;DHT22;447;51.332;6.778;2022-09-13T19:19:43;24.50;90.70
921;DHT22;447;51.332;6.778;2022-09-13T19:22:11;24.50;90.70
921;DHT22;447;51.332;6.778;2022-09-13T19:24:37;24.50;90.70
921;DHT22;447;51.332;6.778;2022-09-13T19:27:06;24.50;90.80
921;DHT22;447;51.332;6.778;2022-09-13T19:29:32;24.50;90.90
921;DHT22;447;51.332;6.778;2022-09-13T19:32:01;24.50;91.00
921;DHT22;447;51.332;6.778;2022-09-13T19:34:29;24.50;91.00
921;DHT22;447;51.332;6.778;2022-09-13T19:36:55;24.50;91.00
921;DHT22;447;51.332;6.778;2022-09-13T19:39:22;24.50;91.20
921;DHT22;447;51.332;6.778;2022-09-13T19:41:49;24.50;91.50
921;DHT22;447;51.332;6.778;2022-09-13T19:44:15;24.50;91.90
921;DHT22;447;51.332;6.778;2022-09-13T19:46:42;24.50;92.10
921;DHT22;447;51.332;6.778;2022-09-13T19:49:11;24.50;92.10
921;DHT22;447;51.332;6.778;2022-09-13T19:51:39;24.50;92.30
921;DHT22;447;51.332;6.778;2022-09-13T19:54:11;24.50;92.40
921;DHT22;447;51.332;6.778;2022-09-13T19:56:40;24.40;92.60
921;DHT22;447;51.332;6.778;2022-09-13T19:59:09;24.40;92.70
921;DHT22;447;51.332;6.778;2022-09-13T20:01:40;24.40;92.80
921;DHT22;447;51.332;6.778;2022-09-13T20:04:10;24.40;92.80
921;DHT22;447;51.332;6.778;2022-09-13T20:06:39;24.40;92.80
921;DHT22;447;51.332;6.778;2022-09-13T20:09:06;24.40;92.80
921;DHT22;447;51.332;6.778;2022-09-13T20:12:09;24.40;92.80
921;DHT22;447;51.332;6.778;2022-09-13T20:14:36;24.40;92.80
921;DHT22;447;51.332;6.778;2022-09-13T20:17:02;24.40;92.80
921;DHT22;447;51.332;6.778;2022-09-13T20:19:29;24.40;92.70
921;DHT22;447;51.332;6.778;2022-09-13T20:21:57;24.40;92.70
921;DHT22;447;51.332;6.778;2022-09-13T20:24:24;24.40;92.80
921;DHT22;447;51.332;6.778;2022-09-13T20:26:52;24.40;92.80
921;DHT22;447;51.332;6.778;2022-09-13T20:29:18;24.40;92.80
921;DHT22;447;51.332;6.778;2022-09-13T20:31:45;24.40;92.90
921;DHT22;447;51.332;6.778;2022-09-13T20:34:13;24.40;93.00
921;DHT22;447;51.332;6.778;2022-09-13T20:36:42;24.40;93.20
921;DHT22;447;51.332;6.778;2022-09-13T20:39:12;24.30;93.30
921;DHT22;447;51.332;6.778;2022-09-13T20:41:42;24.40;93.50
921;DHT22;447;51.332;6.778;2022-09-13T20:44:08;24.30;93.40
921;DHT22;447;51.332;6.778;2022-09-13T20:46:37;24.30;93.30
921;DHT22;447;51.332;6.778;2022-09-13T20:49:09;24.30;93.30
921;DHT22;447;51.332;6.778;2022-09-13T20:51:37;24.30;93.30